Time;durP1;ratioP1;P1;durP2;ratioP2;P2;SDS_P1;SDS_P2;PMS_P1;PMS_P2;Temp;Humidity;BMP_temperature;BMP_pressure;BME280_temperature;BME280_humidity;BME280_pressure;Samples;Min_cycle;Max_cycle;Signal;HPM_P1;HPM_P2
2021/04/06 00:00:12;;;;;;;5.60;1.10;;;;;;;-1.34;71.87;99801.28;5072826;28;20039;-76
2021/04/06 00:02:40;;;;;;;6.47;1.57;;;;;;;-1.38;72.02;99804.59;5090815;28;20032;-77
2021/04/06 00:05:09;;;;;;;5.60;1.30;;;;;;;-1.35;71.75;99808.97;5090635;28;20032;-75
2021/04/06 00:07:37;;;;;;;6.13;1.50;;;;;;;-1.35;71.96;99807.25;5090726;28;20028;-76
2021/04/06 00:10:10;;;;;;;9.50;1.47;;;;;;;-1.39;71.80;99801.94;5090834;28;20043;-76
2021/04/06 00:12:38;;;;;;;7.27;0.93;;;;;;;-1.38;72.31;99802.00;5091166;28;20390;-76
2021/04/06 00:15:11;;;;;;;4.50;1.47;;;;;;;-1.41;72.78;99809.69;5072599;28;20024;-76
2021/04/06 00:17:42;;;;;;;4.43;1.10;;;;;;;-1.39;72.12;99812.28;5072696;28;20032;-76
2021/04/06 00:20:08;;;;;;;5.80;1.40;;;;;;;-1.45;72.21;99823.34;5093434;28;20047;-76
2021/04/06 00:22:36;;;;;;;3.67;1.03;;;;;;;-1.44;72.71;99819.03;5072628;28;20051;-76
2021/04/06 00:25:04;;;;;;;9.27;1.27;;;;;;;-1.47;72.58;99825.00;5080999;28;20814;-76
2021/04/06 00:27:31;;;;;;;10.03;1.47;;;;;;;-1.48;72.45;99828.44;5090568;28;20105;-76
2021/04/06 00:30:05;;;;;;;6.80;1.27;;;;;;;-1.44;72.12;99832.88;5090682;28;20032;-76
2021/04/06 00:32:30;;;;;;;6.50;1.23;;;;;;;-1.40;71.78;99834.72;5090681;28;20055;-76
2021/04/06 00:34:59;;;;;;;7.73;1.80;;;;;;;-1.44;72.58;99837.16;5090707;28;20071;-76
2021/04/06 00:37:25;;;;;;;8.40;1.50;;;;;;;-1.40;72.28;99837.31;5093248;28;20027;-76
2021/04/06 00:40:06;;;;;;;5.63;1.20;;;;;;;-1.30;71.43;99838.47;5102673;28;20027;-76
2021/04/06 00:42:34;;;;;;;4.47;1.03;;;;;;;-1.15;71.92;99844.13;5087520;28;20032;-76
2021/04/06 00:45:07;;;;;;;5.80;1.47;;;;;;;-0.95;71.52;99842.09;5093929;28;20024;-76
2021/04/06 00:47:32;;;;;;;6.80;1.63;;;;;;;-0.81;71.19;99847.69;5093857;28;20125;-76
2021/04/06 00:50:07;;;;;;;5.90;1.20;;;;;;;-0.69;70.85;99842.84;5075786;28;20062;-76
2021/04/06 00:52:40;;;;;;;4.10;0.73;;;;;;;-0.59;69.66;99845.69;5093899;28;20035;-76
2021/04/06 00:55:07;;;;;;;6.43;1.35;;;;;;;-0.53;69.80;99846.72;5093621;28;20047;-76
2021/04/06 00:57:33;;;;;;;6.10;1.27;;;;;;;-0.47;69.35;99851.22;5093691;28;20551;-76
2021/04/06 01:00:21;;;;;;;4.63;1.10;;;;;;;-0.47;68.63;99851.22;5093640;28;20039;-76
2021/04/06 01:03:06;;;;;;;8.47;1.30;;;;;;;-0.45;69.46;99849.53;5075527;28;20040;-76
2021/04/06 01:05:34;;;;;;;5.50;1.00;;;;;;;-0.49;69.12;99846.00;5082286;28;20166;-76
2021/04/06 01:08:03;;;;;;;6.37;1.20;;;;;;;-0.50;68.51;99849.44;5090985;28;20031;-76
2021/04/06 01:10:31;;;;;;;5.17;1.23;;;;;;;-0.65;68.56;99851.59;5093606;28;20103;-76
2021/04/06 01:12:57;;;;;;;6.10;1.27;;;;;;;-0.74;68.96;99841.81;5075430;28;20486;-76
2021/04/06 01:15:25;;;;;;;5.13;1.03;;;;;;;-0.91;69.62;99849.13;5093219;28;20044;-76
2021/04/06 01:17:51;;;;;;;3.30;1.33;;;;;;;-0.96;69.82;99855.03;5093280;28;20039;-76
2021/04/06 01:20:18;;;;;;;9.70;1.77;;;;;;;-0.99;70.57;99840.25;5093370;28;20035;-76
2021/04/06 01:22:45;;;;;;;6.97;1.30;;;;;;;-1.08;69.83;99846.88;5093229;28;20115;-76
2021/04/06 01:25:22;;;;;;;7.23;1.87;;;;;;;-1.17;70.45;99845.78;5093077;28;20046;-76
2021/04/06 01:27:48;;;;;;;6.87;1.40;;;;;;;-1.28;71.35;99846.28;5093277;28;20040;-76
2021/04/06 01:30:15;;;;;;;5.27;1.33;;;;;;;-1.35;71.38;99846.09;5074980;28;20043;-76
2021/04/06 01:32:41;;;;;;;4.63;1.43;;;;;;;-1.41;71.29;99845.03;5093483;28;20028;-76
2021/04/06 01:35:08;;;;;;;5.10;1.17;;;;;;;-1.46;71.41;99849.19;5092895;28;20456;-76
2021/04/06 01:37:34;;;;;;;3.53;1.07;;;;;;;-1.52;71.78;99846.41;5093004;28;20027;-76
2021/04/06 01:40:02;;;;;;;5.93;2.80;;;;;;;-1.52;72.05;99848.97;5092929;28;20032;-76
2021/04/06 01:42:31;;;;;;;7.13;1.70;;;;;;;-1.56;71.83;99853.19;5074753;28;20071;-76
2021/04/06 01:44:58;;;;;;;3.17;1.10;;;;;;;-1.57;71.78;99846.28;5092869;28;20115;-76
2021/04/06 01:47:26;;;;;;;5.60;1.47;;;;;;;-1.49;72.18;99868.09;5092559;28;20032;-76
2021/04/06 01:49:51;;;;;;;6.67;1.27;;;;;;;-1.47;71.87;99850.88;5092718;28;20170;-76
2021/04/06 01:52:18;;;;;;;3.17;1.10;;;;;;;-1.51;71.81;99846.47;5092759;28;20071;-76
2021/04/06 01:54:49;;;;;;;7.03;1.43;;;;;;;-1.52;71.96;99848.97;5092682;28;20035;-76
2021/04/06 01:57:19;;;;;;;3.63;0.90;;;;;;;-1.53;71.91;99844.66;5092435;28;20051;-76
2021/04/06 01:59:52;;;;;;;3.03;1.03;;;;;;;-1.57;72.27;99847.16;5074365;28;20058;-76
2021/04/06 02:02:22;;;;;;;3.43;0.97;;;;;;;-1.60;71.60;99838.41;5092584;28;20044;-76
2021/04/06 02:04:52;;;;;;;3.60;0.80;;;;;;;-1.62;71.74;99834.91;5092429;28;20557;-76
2021/04/06 02:07:24;;;;;;;5.97;2.00;;;;;;;-1.69;72.34;99833.81;5074098;28;20031;-76
2021/04/06 02:09:49;;;;;;;4.40;1.10;;;;;;;-1.67;72.24;99831.28;5065913;28;20070;-76
2021/04/06 02:12:19;;;;;;;7.10;1.03;;;;;;;-1.67;72.02;99828.72;5074349;28;20071;-76
2021/04/06 02:14:45;;;;;;;4.53;0.80;;;;;;;-1.67;72.31;99829.56;5092290;28;20505;-76
2021/04/06 02:17:10;;;;;;;6.07;1.10;;;;;;;-1.68;72.35;99829.50;5092246;28;20040;-76
2021/04/06 02:19:40;;;;;;;6.97;1.37;;;;;;;-1.70;72.69;99836.34;5073955;28;20043;-76
2021/04/06 02:22:14;;;;;;;5.23;1.10;;;;;;;-1.72;72.49;99836.31;5092393;28;20036;-76
2021/04/06 02:24:51;;;;;;;6.13;1.20;;;;;;;-1.75;72.45;99837.94;5089736;28;20036;-76
2021/04/06 02:27:24;;;;;;;6.40;1.13;;;;;;;-1.73;72.21;99837.13;5090302;28;20028;-76
2021/04/06 02:29:55;;;;;;;5.37;0.97;;;;;;;-1.70;72.07;99832.06;5073921;28;20091;-76
2021/04/06 02:32:29;;;;;;;5.60;1.40;;;;;;;-1.70;72.21;99836.34;5082736;28;20050;-76
2021/04/06 02:34:57;;;;;;;6.07;1.13;;;;;;;-1.67;72.02;99826.13;5065626;28;20036;-76
2021/04/06 02:37:25;;;;;;;4.70;1.07;;;;;;;-1.70;72.11;99831.16;5102179;28;20028;-76
2021/04/06 02:39:53;;;;;;;3.27;1.03;;;;;;;-1.74;72.72;99834.50;5091788;28;20035;-76
2021/04/06 02:42:31;;;;;;;6.80;1.57;;;;;;;-1.83;71.94;99830.81;5091871;28;20093;-75
2021/04/06 02:45:00;;;;;;;6.80;1.00;;;;;;;-1.85;72.19;99821.22;5091650;28;20097;-76
2021/04/06 02:47:27;;;;;;;8.17;1.43;;;;;;;-1.84;72.53;99822.97;5090165;28;20603;-76
2021/04/06 02:49:54;;;;;;;9.87;2.30;;;;;;;-1.86;73.35;99824.63;5075020;28;20036;-76
2021/04/06 02:52:19;;;;;;;4.53;1.30;;;;;;;-1.88;73.18;99818.56;5085305;28;20054;-76
2021/04/06 02:54:45;;;;;;;9.10;1.50;;;;;;;-1.90;73.07;99823.66;5091335;28;20024;-77
2021/04/06 02:57:18;;;;;;;6.30;1.37;;;;;;;-1.95;73.17;99822.63;5074741;28;20410;-76
2021/04/06 02:59:44;;;;;;;4.80;1.87;;;;;;;-1.94;73.28;99826.09;5091340;28;20150;-76
2021/04/06 03:02:09;;;;;;;6.20;1.23;;;;;;;-1.96;73.29;99823.47;5090815;28;20067;-76
2021/04/06 03:04:40;;;;;;;6.50;1.20;;;;;;;-1.96;74.05;99823.47;5090974;28;20028;-76
2021/04/06 03:07:25;;;;;;;6.37;1.43;;;;;;;-1.96;73.25;99826.06;5089459;28;20040;-76
2021/04/06 03:09:56;;;;;;;3.20;0.77;;;;;;;-2.04;74.04;99819.75;5073342;28;20036;-77
2021/04/06 03:12:27;;;;;;;6.77;1.20;;;;;;;-2.04;73.80;99815.47;5083466;28;20081;-76
2021/04/06 03:14:53;;;;;;;6.73;1.40;;;;;;;-2.02;73.68;99818.06;5091290;28;20051;-76
2021/04/06 03:17:18;;;;;;;5.30;1.10;;;;;;;-2.04;74.24;99817.19;5081504;28;20036;-77
2021/04/06 03:19:44;;;;;;;6.00;1.67;;;;;;;-2.00;74.11;99812.13;5091136;28;20113;-76
2021/04/06 03:22:11;;;;;;;5.73;1.53;;;;;;;-1.92;73.39;99814.97;5073259;28;20032;-76
2021/04/06 03:24:38;;;;;;;7.43;1.77;;;;;;;-1.85;73.47;99819.53;5092184;28;20036;-76
2021/04/06 03:27:05;;;;;;;5.70;1.47;;;;;;;-1.75;72.90;99827.59;5081670;28;20452;-77
2021/04/06 03:29:32;;;;;;;5.07;1.07;;;;;;;-1.59;72.84;99819.47;5091552;28;20414;-76
2021/04/06 03:31:58;;;;;;;7.80;1.33;;;;;;;-1.41;73.36;99816.56;5073134;28;20039;-76
2021/04/06 03:34:30;;;;;;;8.57;1.73;;;;;;;-1.22;71.83;99820.59;5072997;28;20038;-76
2021/04/06 03:36:56;;;;;;;5.72;1.00;;;;;;;-1.07;71.68;99813.28;5091079;28;20040;-76
2021/04/06 03:39:21;;;;;;;5.97;1.57;;;;;;;-0.91;71.18;99818.03;5091098;28;20042;-75
2021/04/06 03:41:47;;;;;;;5.90;0.90;;;;;;;-0.83;70.23;99814.81;5081492;28;20415;-76
2021/04/06 03:44:13;;;;;;;3.93;1.20;;;;;;;-0.76;70.46;99814.13;5081560;28;20097;-76
2021/04/06 03:46:42;;;;;;;6.50;1.00;;;;;;;-0.67;70.02;99811.78;5073060;28;20085;-76
2021/04/06 03:49:24;;;;;;;5.87;1.43;;;;;;;-0.62;69.73;99812.78;5090765;28;20035;-76
2021/04/06 03:51:52;;;;;;;7.90;1.30;;;;;;;-0.58;69.35;99809.44;5091374;28;20040;-75
2021/04/06 03:54:40;;;;;;;7.63;1.07;;;;;;;-0.55;68.90;99817.31;5091660;28;20397;-76
2021/04/06 03:57:43;;;;;;;4.37;1.10;;;;;;;-0.50;69.83;99814.81;5092179;28;20043;-76
2021/04/06 04:00:10;;;;;;;3.83;1.50;;;;;;;-0.42;69.48;99818.50;5089050;28;20489;-76
2021/04/06 04:02:36;;;;;;;6.73;1.70;;;;;;;-0.36;69.65;99815.22;5089251;28;20043;-76
2021/04/06 04:05:02;;;;;;;5.40;1.20;;;;;;;-0.37;68.70;99816.91;5088714;28;20490;-76
2021/04/06 04:07:29;;;;;;;8.33;1.30;;;;;;;-0.35;69.12;99817.81;5088970;28;20058;-76
2021/04/06 04:09:54;;;;;;;6.07;0.97;;;;;;;-0.32;69.07;99811.84;5088859;28;20035;-76
2021/04/06 04:12:19;;;;;;;3.23;1.00;;;;;;;-0.25;68.75;99811.19;5073677;28;20036;-76
2021/04/06 04:14:45;;;;;;;7.50;1.53;;;;;;;-0.28;68.18;99806.78;5092805;28;20052;-76
2021/04/06 04:17:11;;;;;;;9.60;1.63;;;;;;;-0.26;68.45;99799.94;5092963;28;20409;-76
2021/04/06 04:19:36;;;;;;;8.87;2.20;;;;;;;-0.23;69.47;99804.31;5094527;28;20040;-76
2021/04/06 04:22:02;;;;;;;4.30;1.20;;;;;;;-0.22;68.80;99801.75;5097319;28;20040;-76
2021/04/06 04:24:28;;;;;;;5.30;1.60;;;;;;;-0.35;68.41;99804.00;5094522;28;20069;-76
2021/04/06 04:26:53;;;;;;;6.30;1.80;;;;;;;-0.39;68.39;99797.88;5094325;28;20040;-75
2021/04/06 04:29:18;;;;;;;4.03;1.47;;;;;;;-0.50;69.23;99795.00;5094434;28;20040;-76
2021/04/06 04:31:46;;;;;;;6.90;1.47;;;;;;;-0.45;69.27;99793.41;5094368;28;20040;-76
2021/04/06 04:34:11;;;;;;;5.60;1.50;;;;;;;-0.49;70.15;99796.75;5094496;28;20038;-76
2021/04/06 04:36:37;;;;;;;5.80;1.60;;;;;;;-0.41;70.04;99802.13;5096836;28;20490;-76
2021/04/06 04:39:04;;;;;;;5.10;1.50;;;;;;;-0.37;70.35;99797.88;5094159;28;20031;-76
2021/04/06 04:41:30;;;;;;;6.00;1.70;;;;;;;-0.32;70.14;99798.88;5094328;28;20379;-75
2021/04/06 04:43:55;;;;;;;4.30;1.63;;;;;;;-0.44;70.72;99804.63;5094048;28;20043;-76
2021/04/06 04:46:20;;;;;;;7.43;1.67;;;;;;;-0.45;71.14;99803.78;5084176;28;20035;-76
2021/04/06 04:48:46;;;;;;;8.07;2.80;;;;;;;-0.45;71.63;99793.41;5075806;28;20053;-76
2021/04/06 04:51:11;;;;;;;6.17;2.00;;;;;;;-0.48;72.21;99797.59;5093955;28;20039;-75
2021/04/06 04:53:37;;;;;;;10.37;2.23;;;;;;;-0.53;71.75;99799.19;5075872;28;20032;-75
2021/04/06 04:56:03;;;;;;;7.83;2.50;;;;;;;-0.51;72.52;99795.81;5093612;28;20036;-76
2021/04/06 04:58:28;;;;;;;8.63;2.87;;;;;;;-0.41;72.30;99798.66;5093844;28;20039;-75
2021/04/06 05:00:53;;;;;;;17.80;8.23;;;;;;;-0.33;72.40;99803.19;5093694;28;20478;-76
2021/04/06 05:03:19;;;;;;;9.90;3.10;;;;;;;-0.25;71.99;99791.31;5093663;28;20482;-76
2021/04/06 05:05:44;;;;;;;5.77;2.00;;;;;;;-0.17;72.43;99790.63;5075553;28;20143;-76
2021/04/06 05:08:09;;;;;;;7.93;2.50;;;;;;;-0.07;71.78;99801.25;5093554;28;20044;-75
2021/04/06 05:10:35;;;;;;;6.10;2.20;;;;;;;-0.07;72.21;99790.88;5093666;28;20044;-76
2021/04/06 05:13:00;;;;;;;8.87;2.37;;;;;;;-0.01;71.96;99792.75;5093637;28;20035;-76
2021/04/06 05:15:29;;;;;;;6.87;2.77;;;;;;;0.02;72.08;99789.34;5093274;28;20040;-75
2021/04/06 05:17:54;;;;;;;7.07;2.73;;;;;;;0.00;71.59;99797.13;5093381;28;20075;-76
2021/04/06 05:20:20;;;;;;;8.00;2.40;;;;;;;-0.01;71.73;99792.75;5093425;28;20122;-76
2021/04/06 05:22:45;;;;;;;9.33;2.50;;;;;;;-0.08;72.12;99783.97;5092913;28;20032;-76
2021/04/06 05:25:11;;;;;;;6.60;2.40;;;;;;;-0.18;72.73;99781.97;5116994;22;20052;-71
2021/04/06 05:27:36;;;;;;;5.00;2.50;;;;;;;-0.34;72.96;99785.00;5105314;28;20401;-71
2021/04/06 05:30:02;;;;;;;5.07;2.50;;;;;;;-0.40;72.74;99793.50;5103977;28;20465;-69
2021/04/06 05:32:27;;;;;;;5.47;2.67;;;;;;;-0.51;73.43;99788.03;5101663;28;20081;-69
2021/04/06 05:34:53;;;;;;;5.07;2.80;;;;;;;-0.54;73.83;99789.69;5101492;28;20039;-70
2021/04/06 05:37:18;;;;;;;6.90;3.10;;;;;;;-0.61;74.47;99783.44;5081141;28;20085;-69
2021/04/06 05:39:43;;;;;;;5.17;2.67;;;;;;;-0.59;73.80;99789.53;5081242;28;20123;-68
2021/04/06 05:42:12;;;;;;;6.13;2.70;;;;;;;-0.65;74.21;99789.41;5083135;28;20036;-69
2021/04/06 05:44:46;;;;;;;5.97;2.57;;;;;;;-0.71;75.42;99784.03;5084534;28;20083;-69
2021/04/06 05:47:17;;;;;;;7.53;2.77;;;;;;;-0.75;75.29;99789.97;5081956;28;20057;-69
2021/04/06 05:49:42;;;;;;;10.30;3.10;;;;;;;-0.69;75.32;99792.72;5080991;28;20033;-70
2021/04/06 05:52:08;;;;;;;8.27;3.27;;;;;;;-0.65;75.08;99796.31;5082824;28;20040;-69
2021/04/06 05:54:34;;;;;;;8.07;3.43;;;;;;;-0.52;74.84;99796.66;5084377;28;20537;-69
2021/04/06 05:56:59;;;;;;;6.90;3.17;;;;;;;-0.43;75.44;99800.31;5083448;28;20485;-70
2021/04/06 05:59:24;;;;;;;6.90;2.40;;;;;;;-0.28;74.27;99798.13;5080742;28;20037;-70
2021/04/06 06:01:50;;;;;;;7.40;3.00;;;;;;;-0.15;74.03;99788.97;5080843;28;20032;-69
2021/04/06 06:04:18;;;;;;;9.33;3.47;;;;;;;-0.04;73.29;99784.91;5083503;28;20047;-69
2021/04/06 06:06:45;;;;;;;8.03;3.27;;;;;;;0.09;72.82;99799.06;5083962;28;20409;-70
2021/04/06 06:09:11;;;;;;;8.20;3.47;;;;;;;0.32;72.89;99790.09;5081936;28;20051;-69
2021/04/06 06:12:03;;;;;;;6.50;3.00;;;;;;;0.44;72.77;99795.53;5080610;28;20483;-70
2021/04/06 06:14:36;;;;;;;8.27;4.00;;;;;;;0.55;71.99;99792.31;5080434;28;20450;-70
2021/04/06 06:17:33;;;;;;;11.93;4.53;;;;;;;0.70;71.98;99789.19;5081375;28;20028;-69
2021/04/06 06:19:59;;;;;;;6.97;3.70;;;;;;;0.85;71.96;99790.38;5035777;28;20047;-69
2021/04/06 06:22:30;;;;;;;9.40;4.07;;;;;;;0.93;71.33;99784.47;5080233;28;20517;-70
2021/04/06 06:25:06;;;;;;;10.93;4.73;;;;;;;1.05;70.25;99776.94;5080065;28;20644;-70
2021/04/06 06:27:47;;;;;;;10.63;4.10;;;;;;;1.24;71.11;99786.84;5083651;28;20030;-70
2021/04/06 06:30:32;;;;;;;7.67;4.00;;;;;;;1.45;68.88;99786.38;5080992;28;20036;-69
2021/04/06 06:33:15;;;;;;;8.03;3.10;;;;;;;1.27;69.07;99797.28;5080581;28;20040;-69
2021/04/06 06:35:42;;;;;;;6.38;3.40;;;;;;;1.46;68.78;99792.44;5085815;28;20032;-70
2021/04/06 06:38:18;;;;;;;6.03;3.47;;;;;;;1.69;68.28;99785.94;5083357;28;20042;-70
2021/04/06 06:40:44;;;;;;;8.25;3.30;;;;;;;1.61;67.74;99794.47;5083306;28;20076;-70
2021/04/06 06:43:12;;;;;;;7.15;2.88;;;;;;;1.52;68.41;99788.25;5093742;28;20048;-70
2021/04/06 06:45:38;;;;;;;8.93;3.17;;;;;;;1.48;67.89;99796.81;5082809;28;20068;-70
2021/04/06 06:48:04;;;;;;;9.23;3.47;;;;;;;1.46;68.44;99790.72;5081639;28;20122;-70
2021/04/06 06:50:29;;;;;;;8.18;3.30;;;;;;;1.64;68.03;99787.59;5079712;28;20067;-69
2021/04/06 06:52:57;;;;;;;7.43;3.83;;;;;;;1.57;68.33;99782.25;5079849;28;20083;-70
2021/04/06 06:55:24;;;;;;;6.82;3.10;;;;;;;1.59;67.96;99784.03;5082994;28;20028;-70
2021/04/06 06:58:01;;;;;;;6.30;4.10;;;;;;;1.73;67.78;99779.94;5083281;28;20551;-70
2021/04/06 07:00:26;;;;;;;8.15;3.90;;;;;;;1.88;67.29;99787.13;5079789;28;20037;-70
2021/04/06 07:02:51;;;;;;;7.00;3.75;;;;;;;1.82;66.14;99793.97;5079724;28;20028;-69
2021/04/06 07:05:23;;;;;;;7.87;3.97;;;;;;;1.67;66.97;99789.34;5064447;28;20514;-70
2021/04/06 07:07:56;;;;;;;7.22;3.80;;;;;;;1.54;68.10;99785.66;5082987;28;20032;-69
2021/04/06 07:10:33;;;;;;;11.00;4.50;;;;;;;1.33;68.38;99787.88;5079673;28;20119;-70
2021/04/06 07:12:58;;;;;;;9.68;4.63;;;;;;;1.18;69.03;99791.03;5079997;28;20025;-70
2021/04/06 07:15:26;;;;;;;11.27;5.10;;;;;;;0.98;70.65;99783.72;5082759;28;20460;-69
2021/04/06 07:18:00;;;;;;;14.23;6.03;;;;;;;1.01;71.58;99773.38;5083048;28;20089;-70
2021/04/06 07:20:26;;;;;;;8.50;4.20;;;;;;;1.07;69.94;99773.53;5079498;28;20070;-69
2021/04/06 07:22:57;;;;;;;8.40;4.20;;;;;;;1.21;70.64;99771.19;5079769;28;20399;-70
2021/04/06 07:25:23;;;;;;;11.07;4.83;;;;;;;1.43;71.08;99774.19;5079056;28;20089;-70
2021/04/06 07:27:49;;;;;;;8.60;5.50;;;;;;;1.58;70.32;99771.00;5079473;28;20029;-69
2021/04/06 07:30:14;;;;;;;9.35;4.57;;;;;;;1.67;69.57;99778.97;5082123;28;20048;-69
2021/04/06 07:32:41;;;;;;;8.15;5.13;;;;;;;1.63;68.60;99771.97;5082927;28;20038;-69
2021/04/06 07:35:10;;;;;;;10.27;5.97;;;;;;;1.51;68.65;99764.81;5062957;28;20122;-69
2021/04/06 07:37:41;;;;;;;8.43;5.43;;;;;;;1.57;69.92;99769.22;5079764;28;20036;-70
2021/04/06 07:40:10;;;;;;;9.97;5.03;;;;;;;1.79;67.69;99767.91;5085212;28;20047;-70
2021/04/06 07:42:40;;;;;;;9.53;5.30;;;;;;;1.83;67.85;99767.09;5081058;28;20074;-70
2021/04/06 07:45:29;;;;;;;10.03;5.27;;;;;;;1.94;68.05;99778.56;5089533;28;20040;-70
2021/04/06 07:47:54;;;;;;;8.57;5.43;;;;;;;1.95;67.13;99772.50;5073549;28;20052;-70
2021/04/06 07:50:43;;;;;;;6.75;4.60;;;;;;;2.14;66.27;99769.31;5083162;28;20055;-70
2021/04/06 07:53:20;;;;;;;9.73;5.63;;;;;;;2.63;66.20;99777.88;5085323;28;20440;-69
2021/04/06 07:55:46;;;;;;;8.43;5.32;;;;;;;2.88;64.32;99772.09;5086392;28;20402;-70
2021/04/06 07:58:45;;;;;;;10.27;4.80;;;;;;;2.72;63.76;99773.63;5084308;28;20031;-70
2021/04/06 08:01:12;;;;;;;7.72;4.72;;;;;;;2.60;64.29;99767.41;5085235;28;20036;-70
2021/04/06 08:03:49;;;;;;;8.25;4.63;;;;;;;2.46;63.70;99776.75;5086477;28;20024;-70
2021/04/06 08:06:19;;;;;;;6.78;4.30;;;;;;;2.19;63.32;99765.06;5083468;28;20039;-70
2021/04/06 08:08:44;;;;;;;10.90;4.57;;;;;;;1.96;63.90;99767.34;5083056;28;20033;-69
2021/04/06 08:11:09;;;;;;;8.75;5.45;;;;;;;1.95;64.43;99762.97;5084802;28;20502;-70
2021/04/06 08:13:35;;;;;;;7.20;4.03;;;;;;;2.05;63.03;99770.94;5086314;28;20081;-70
2021/04/06 08:16:11;;;;;;;8.18;4.63;;;;;;;2.32;64.49;99762.66;5085461;28;20032;-70
2021/04/06 08:18:52;;;;;;;14.10;6.95;;;;;;;2.75;63.49;99765.84;5082831;28;20078;-70
2021/04/06 08:21:25;;;;;;;5.50;3.85;;;;;;;2.85;61.64;99783.34;5085865;28;20031;-70
2021/04/06 08:23:52;;;;;;;11.70;6.03;;;;;;;3.14;62.23;99783.72;5068037;28;20071;-70
2021/04/06 08:26:30;;;;;;;9.40;4.43;;;;;;;3.40;60.42;99785.75;5082483;28;20059;-69
2021/04/06 08:29:16;;;;;;;7.13;3.38;;;;;;;3.35;59.29;99793.53;5082616;28;20040;-70
2021/04/06 08:31:41;;;;;;;7.53;4.20;;;;;;;3.46;59.83;99791.94;5085937;28;20035;-70
2021/04/06 08:34:28;;;;;;;8.20;3.83;;;;;;;3.42;59.05;99790.13;5084063;28;20053;-70
2021/04/06 08:37:08;;;;;;;10.77;4.07;;;;;;;3.50;60.35;99779.78;5082264;28;20044;-70
2021/04/06 08:39:37;;;;;;;8.45;3.97;;;;;;;3.50;59.21;99787.59;5082362;28;20037;-70
2021/04/06 08:42:04;;;;;;;8.45;4.07;;;;;;;3.49;59.72;99785.88;5083374;28;20044;-70
2021/04/06 08:44:31;;;;;;;10.30;3.80;;;;;;;3.37;57.74;99803.97;5085556;28;20032;-71
2021/04/06 08:46:57;;;;;;;7.95;3.50;;;;;;;3.43;58.15;99788.38;5085379;28;20035;-72
2021/04/06 08:49:25;;;;;;;7.85;3.97;;;;;;;3.44;58.20;99803.19;5082213;28;20032;-70
2021/04/06 08:51:52;;;;;;;10.43;4.03;;;;;;;3.42;59.20;99792.75;5082241;28;20032;-72
2021/04/06 08:54:27;;;;;;;10.07;5.05;;;;;;;3.27;59.82;99788.25;5085132;28;20028;-72
2021/04/06 08:57:07;;;;;;;8.05;3.90;;;;;;;3.07;59.93;99793.22;5082300;28;20040;-70
2021/04/06 08:59:35;;;;;;;9.27;4.45;;;;;;;3.11;61.24;99783.69;5084216;28;20025;-70
2021/04/06 09:02:09;;;;;;;7.68;4.35;;;;;;;3.33;60.26;99790.03;5096083;28;20064;-70
2021/04/06 09:04:37;;;;;;;11.23;4.80;;;;;;;3.47;59.98;99796.28;5087998;28;20032;-70
2021/04/06 09:07:23;;;;;;;9.48;4.47;;;;;;;3.72;59.11;99789.59;5082837;28;20036;-70
2021/04/06 09:10:03;;;;;;;6.90;4.45;;;;;;;4.23;57.07;99782.16;5068288;28;20054;-70
2021/04/06 09:12:40;;;;;;;9.38;4.20;;;;;;;4.28;56.67;99770.03;5081667;28;20044;-70
2021/04/06 09:15:08;;;;;;;10.80;4.28;;;;;;;4.49;56.16;99786.72;5082972;28;20071;-70
2021/04/06 09:17:35;;;;;;;8.93;4.28;;;;;;;4.43;56.81;99781.44;5085118;28;20510;-70
2021/04/06 09:20:13;;;;;;;8.40;4.07;;;;;;;4.38;54.88;99784.91;5084321;28;20089;-70
2021/04/06 09:22:41;;;;;;;9.13;4.22;;;;;;;4.53;55.16;99764.94;5081602;28;20062;-70
2021/04/06 09:25:21;;;;;;;6.93;3.90;;;;;;;4.65;54.07;99770.25;5061222;28;20045;-70
2021/04/06 09:27:53;;;;;;;9.60;4.00;;;;;;;4.62;54.09;99783.31;5081529;28;20406;-70
2021/04/06 09:30:31;;;;;;;8.13;3.88;;;;;;;4.48;54.47;99787.56;5084544;28;20494;-70
2021/04/06 09:32:57;;;;;;;9.25;3.70;;;;;;;4.34;53.79;99810.97;5084628;28;20107;-70
2021/04/06 09:35:22;;;;;;;7.13;3.67;;;;;;;4.24;55.43;99778.69;5081111;28;20040;-70
2021/04/06 09:37:48;;;;;;;7.20;3.60;;;;;;;4.42;54.13;99777.06;5081349;28;20028;-70
2021/04/06 09:40:14;;;;;;;7.55;3.00;;;;;;;4.29;52.80;99783.94;5083684;28;20518;-70
2021/04/06 09:42:39;;;;;;;8.35;3.47;;;;;;;4.08;54.25;99797.72;5084457;28;20992;-69
2021/04/06 09:45:05;;;;;;;9.00;3.67;;;;;;;4.18;53.84;99781.25;5083121;28;20062;-70
2021/04/06 09:47:36;;;;;;;7.10;3.05;;;;;;;4.25;52.49;99800.47;5081210;28;20462;-72
2021/04/06 09:50:02;;;;;;;6.95;3.38;;;;;;;4.43;53.50;99797.09;5081940;28;20171;-70
2021/04/06 09:52:28;;;;;;;7.20;2.67;;;;;;;4.57;52.12;99804.19;5084634;28;20036;-72
2021/04/06 09:54:59;;;;;;;6.60;2.75;;;;;;;4.62;54.80;99775.47;5084402;28;20045;-69
2021/04/06 09:57:37;;;;;;;8.27;3.30;;;;;;;5.05;52.29;99779.16;5080730;28;20028;-71
2021/04/06 10:00:06;;;;;;;9.38;2.95;;;;;;;4.91;53.29;99761.69;5086062;28;20070;-70
2021/04/06 10:02:32;;;;;;;6.63;2.92;;;;;;;4.66;52.13;99766.75;5097227;28;20028;-70
2021/04/06 10:04:57;;;;;;;7.07;2.97;;;;;;;4.56;52.37;99771.09;5083983;28;20122;-70
2021/04/06 10:07:34;;;;;;;7.57;2.67;;;;;;;4.53;51.99;99767.56;5074359;28;20048;-70
2021/04/06 10:10:07;;;;;;;7.47;3.15;;;;;;;4.67;52.75;99762.44;5081119;28;20062;-70
2021/04/06 10:12:33;;;;;;;4.60;2.63;;;;;;;4.73;51.67;99768.56;5084032;28;20391;-70
2021/04/06 10:15:00;;;;;;;5.20;2.60;;;;;;;4.76;51.50;99759.84;5083418;28;20047;-70
2021/04/06 10:17:39;;;;;;;7.03;3.10;;;;;;;4.70;51.66;99758.09;5080499;28;20516;-70
2021/04/06 10:20:11;;;;;;;6.75;2.63;;;;;;;4.95;50.56;99758.19;5088031;28;20422;-71
2021/04/06 10:22:49;;;;;;;7.22;2.92;;;;;;;5.41;50.40;99753.13;5077618;28;20057;-70
2021/04/06 10:25:20;;;;;;;6.32;2.60;;;;;;;5.56;49.97;99747.91;5080731;28;20070;-70
2021/04/06 10:27:50;;;;;;;5.68;2.22;;;;;;;5.54;49.74;99735.69;5081013;28;20024;-70
2021/04/06 10:30:38;;;;;;;4.53;2.17;;;;;;;5.65;48.96;99737.44;5089052;28;20036;-70
2021/04/06 10:33:12;;;;;;;7.00;2.40;;;;;;;5.52;48.67;99735.69;5081348;28;20029;-70
2021/04/06 10:35:54;;;;;;;8.88;3.38;;;;;;;5.60;48.59;99723.47;5083272;28;20542;-70
2021/04/06 10:38:29;;;;;;;8.02;2.38;;;;;;;6.11;47.94;99728.78;5080216;28;20041;-70
2021/04/06 10:41:03;;;;;;;5.68;2.50;;;;;;;6.45;49.10;99734.84;5080102;28;20036;-70
2021/04/06 10:43:29;;;;;;;5.68;2.50;;;;;;;6.49;50.42;99719.97;5079883;28;20394;-70
2021/04/06 10:46:23;;;;;;;5.45;2.20;;;;;;;6.34;48.48;99719.13;5079520;28;20043;-70
2021/04/06 10:49:00;;;;;;;5.35;2.20;;;;;;;5.90;50.16;99714.78;5077786;28;20419;-71
2021/04/06 10:51:27;;;;;;;10.38;1.95;;;;;;;5.79;50.38;99711.28;5075781;28;20089;-70
2021/04/06 10:53:56;;;;;;;5.03;1.80;;;;;;;5.84;49.90;99716.50;5083214;28;20119;-70
2021/04/06 10:56:39;;;;;;;4.07;1.58;;;;;;;5.86;51.05;99714.75;5086627;28;20062;-70
2021/04/06 10:59:08;;;;;;;6.65;1.75;;;;;;;5.96;49.95;99713.06;5081236;28;20098;-70
2021/04/06 11:01:48;;;;;;;6.13;1.75;;;;;;;5.88;49.95;99707.78;5083106;28;20032;-70
2021/04/06 11:04:16;;;;;;;7.03;1.92;;;;;;;5.61;48.90;99720.00;5080633;28;20032;-71
2021/04/06 11:06:44;;;;;;;5.85;1.40;;;;;;;5.40;50.26;99699.03;5079391;28;20044;-70
2021/04/06 11:09:13;;;;;;;4.95;1.55;;;;;;;5.23;51.85;99696.38;5081594;28;20036;-70
2021/04/06 11:11:39;;;;;;;5.28;1.65;;;;;;;5.08;54.12;99702.44;5083060;28;20113;-70
2021/04/06 11:14:08;;;;;;;6.00;1.67;;;;;;;4.95;55.61;99727.72;5081866;28;20024;-71
2021/04/06 11:16:34;;;;;;;4.10;1.13;;;;;;;4.28;61.09;99733.44;5079139;28;20036;-70
2021/04/06 11:19:14;;;;;;;5.78;1.27;;;;;;;3.05;68.22;99752.34;5080161;28;20046;-69
2021/04/06 11:21:43;;;;;;;3.83;1.33;;;;;;;2.09;73.80;99784.00;5099063;28;20110;-69
2021/04/06 11:24:09;;;;;;;3.75;1.52;;;;;;;1.56;77.32;99760.56;5081088;28;20541;-68
2021/04/06 11:26:35;;;;;;;5.55;1.58;;;;;;;1.21;78.76;99757.31;5079216;28;20048;-69
2021/04/06 11:29:01;;;;;;;8.65;1.80;;;;;;;1.00;80.92;99755.19;5062296;28;20040;-69
2021/04/06 11:31:28;;;;;;;6.72;1.88;;;;;;;1.09;80.28;99742.34;5082969;28;20046;-69
2021/04/06 11:33:53;;;;;;;6.67;1.67;;;;;;;1.22;79.82;99731.34;5082860;28;20504;-68
2021/04/06 11:36:19;;;;;;;9.07;2.20;;;;;;;1.49;78.64;99736.19;5079180;28;20025;-69
2021/04/06 11:38:44;;;;;;;6.40;2.17;;;;;;;1.73;78.73;99733.13;5079328;28;20041;-69
2021/04/06 11:41:10;;;;;;;6.57;2.13;;;;;;;1.95;77.97;99730.88;5081287;28;20033;-69
2021/04/06 11:43:36;;;;;;;9.73;3.63;;;;;;;2.22;79.08;99724.31;5082512;28;20036;-69
2021/04/06 11:46:02;;;;;;;7.07;2.60;;;;;;;2.49;76.54;99739.44;5081473;28;20028;-70
2021/04/06 11:48:29;;;;;;;10.88;2.83;;;;;;;2.54;76.37;99746.50;5061079;28;20036;-70